createdAt,value
2018-01-30T00:00:25.850Z,7.90
2018-01-30T00:00:57.464Z,8.00
2018-01-30T00:01:29.084Z,7.90
2018-01-30T00:02:00.717Z,8.00
2018-01-30T00:02:32.325Z,8.00
2018-01-30T00:03:04.048Z,8.00
2018-01-30T00:03:35.684Z,7.90
2018-01-30T00:04:07.298Z,7.90
2018-01-30T00:04:38.920Z,7.90
2018-01-30T00:05:10.528Z,7.90
2018-01-30T00:05:42.150Z,7.90
2018-01-30T00:06:13.776Z,8.00
2018-01-30T00:06:45.436Z,8.00
2018-01-30T00:07:17.065Z,7.90
2018-01-30T00:07:48.698Z,7.90
2018-01-30T00:08:20.336Z,7.90
2018-01-30T00:08:51.980Z,7.90
2018-01-30T00:09:23.585Z,7.90
2018-01-30T00:09:55.276Z,7.90
2018-01-30T00:10:26.889Z,7.90
2018-01-30T00:10:58.518Z,7.90
2018-01-30T00:11:30.160Z,7.90
2018-01-30T00:12:01.764Z,7.90
2018-01-30T00:12:33.396Z,7.90
2018-01-30T00:13:05.012Z,7.80
2018-01-30T00:13:36.633Z,7.90
2018-01-30T00:14:08.252Z,7.90
2018-01-30T00:14:39.872Z,7.90
2018-01-30T00:15:11.563Z,7.90
2018-01-30T00:15:43.166Z,7.90
2018-01-30T00:16:14.790Z,7.80
2018-01-30T00:16:46.402Z,7.90
2018-01-30T00:17:18.020Z,7.90
2018-01-30T00:17:49.664Z,7.90
2018-01-30T00:18:21.283Z,7.80
2018-01-30T00:18:52.912Z,7.90
2018-01-30T00:19:24.532Z,7.80
2018-01-30T00:19:56.195Z,7.90
2018-01-30T00:20:27.860Z,7.90
2018-01-30T00:20:59.562Z,7.80
2018-01-30T00:21:31.272Z,7.90
2018-01-30T00:22:03.008Z,7.80
2018-01-30T00:22:34.745Z,7.90
2018-01-30T00:23:06.532Z,7.90
2018-01-30T00:23:38.254Z,7.80
2018-01-30T00:24:09.990Z,7.70
2018-01-30T00:24:41.692Z,7.80
2018-01-30T00:25:13.402Z,7.80
2018-01-30T00:25:45.122Z,7.80
2018-01-30T00:26:16.822Z,7.80
2018-01-30T00:26:48.614Z,7.70
2018-01-30T00:27:20.328Z,7.80
2018-01-30T00:27:52.046Z,7.70
2018-01-30T00:28:23.826Z,7.80
2018-01-30T00:28:55.528Z,7.70
2018-01-30T00:29:27.241Z,7.70
2018-01-30T00:29:58.883Z,7.80
2018-01-30T00:30:30.534Z,7.70
2018-01-30T00:31:02.162Z,7.80
2018-01-30T00:31:33.768Z,7.70
2018-01-30T00:32:05.398Z,7.80
2018-01-30T00:32:37.040Z,7.70
2018-01-30T00:33:08.642Z,7.80
2018-01-30T00:33:40.270Z,7.70
2018-01-30T00:34:11.900Z,7.70
2018-01-30T00:34:43.512Z,7.70
2018-01-30T00:35:15.144Z,7.70
2018-01-30T00:35:46.758Z,7.70
2018-01-30T00:36:18.392Z,7.70
2018-01-30T00:36:50.036Z,7.70
2018-01-30T00:37:21.664Z,7.60
2018-01-30T00:37:53.290Z,7.70
2018-01-30T00:38:24.926Z,7.60
2018-01-30T00:38:56.521Z,7.60
2018-01-30T00:39:28.149Z,7.60
2018-01-30T00:39:59.794Z,7.60
2018-01-30T00:40:31.415Z,7.60
2018-01-30T00:41:03.036Z,7.50
2018-01-30T00:41:34.639Z,7.40
2018-01-30T00:42:06.265Z,7.50
2018-01-30T00:42:37.886Z,7.40
2018-01-30T00:43:09.496Z,7.50
2018-01-30T00:43:41.097Z,7.40
2018-01-30T00:44:12.731Z,7.50
2018-01-30T00:44:44.350Z,7.30
2018-01-30T00:45:15.964Z,7.40
2018-01-30T00:45:47.560Z,7.40
2018-01-30T00:46:19.180Z,7.30
2018-01-30T00:46:50.802Z,7.30
2018-01-30T00:47:22.406Z,7.20
2018-01-30T00:47:54.026Z,7.30
2018-01-30T00:48:25.628Z,7.30
2018-01-30T00:48:57.260Z,7.30
2018-01-30T00:49:28.887Z,7.30
2018-01-30T00:50:00.516Z,7.30
2018-01-30T00:50:32.132Z,7.30
2018-01-30T00:51:03.786Z,7.20
2018-01-30T00:51:35.402Z,7.30
2018-01-30T00:52:07.038Z,7.20
2018-01-30T00:52:38.655Z,7.20
2018-01-30T00:53:10.274Z,7.20
2018-01-30T00:53:41.888Z,7.20
2018-01-30T00:54:13.512Z,7.10
2018-01-30T00:54:45.143Z,7.10
2018-01-30T00:55:16.786Z,7.10
2018-01-30T00:55:48.398Z,7.10
2018-01-30T00:56:20.004Z,7.10
2018-01-30T00:56:51.627Z,7.10
2018-01-30T00:57:23.264Z,7.10
2018-01-30T00:57:54.890Z,7.10
2018-01-30T00:58:26.500Z,7.00
2018-01-30T00:58:58.119Z,7.00
2018-01-30T00:59:29.715Z,6.90
2018-01-30T01:00:01.360Z,6.90
2018-01-30T01:00:33.002Z,6.90
2018-01-30T01:01:04.630Z,7.00
2018-01-30T01:01:36.236Z,6.90
2018-01-30T01:02:07.860Z,6.90
2018-01-30T01:02:39.468Z,6.90
2018-01-30T01:03:11.084Z,7.00
2018-01-30T01:03:42.704Z,6.90
2018-01-30T01:04:14.328Z,6.90
2018-01-30T01:04:45.949Z,7.00
2018-01-30T01:05:17.576Z,6.90
2018-01-30T01:05:49.206Z,6.90
2018-01-30T01:06:20.808Z,6.80
2018-01-30T01:06:52.432Z,6.90
2018-01-30T01:07:24.048Z,6.90
2018-01-30T01:07:55.670Z,6.80
2018-01-30T01:08:27.316Z,6.80
2018-01-30T01:08:58.922Z,6.70
2018-01-30T01:09:30.557Z,6.80
2018-01-30T01:10:02.224Z,6.70
2018-01-30T01:10:33.880Z,6.70
2018-01-30T01:11:05.484Z,6.60
2018-01-30T01:11:37.092Z,6.60
2018-01-30T01:12:08.700Z,6.60
2018-01-30T01:12:40.310Z,6.60
2018-01-30T01:13:11.992Z,6.60
2018-01-30T01:13:43.696Z,6.50
2018-01-30T01:14:15.408Z,6.60
2018-01-30T01:14:47.122Z,6.60
2018-01-30T01:15:18.858Z,6.50
2018-01-30T01:15:50.596Z,6.50
2018-01-30T01:16:22.303Z,6.50
2018-01-30T01:16:54.000Z,6.50
2018-01-30T01:17:25.742Z,6.60
2018-01-30T01:17:57.374Z,6.60
2018-01-30T01:18:28.966Z,6.60
2018-01-30T01:19:00.564Z,6.50
2018-01-30T01:19:32.200Z,6.50
2018-01-30T01:20:03.809Z,6.50
2018-01-30T01:20:35.444Z,6.40
2018-01-30T01:21:07.096Z,6.50
2018-01-30T01:21:38.696Z,6.50
2018-01-30T01:22:10.318Z,6.40
2018-01-30T01:22:41.942Z,6.40
2018-01-30T01:23:13.573Z,6.40
2018-01-30T01:23:45.211Z,6.40
2018-01-30T01:24:16.872Z,6.40
2018-01-30T01:24:48.490Z,6.40
2018-01-30T01:25:20.128Z,6.40
2018-01-30T01:25:51.763Z,6.40
2018-01-30T01:26:23.384Z,6.40
2018-01-30T01:26:55.004Z,6.30
2018-01-30T01:27:26.622Z,6.30
2018-01-30T01:27:58.298Z,6.30
2018-01-30T01:28:29.898Z,6.30
2018-01-30T01:29:01.531Z,6.30
2018-01-30T01:29:33.155Z,6.20
2018-01-30T01:30:04.796Z,6.20
2018-01-30T01:30:36.400Z,6.20
2018-01-30T01:31:08.064Z,6.20
2018-01-30T01:31:39.712Z,6.20
2018-01-30T01:32:11.328Z,6.20
2018-01-30T01:32:42.944Z,6.20
2018-01-30T01:33:14.548Z,6.20
2018-01-30T01:33:46.152Z,6.20
2018-01-30T01:34:17.775Z,6.20
2018-01-30T01:34:49.389Z,6.20
2018-01-30T01:35:21.004Z,6.20
2018-01-30T01:35:52.616Z,6.20
2018-01-30T01:36:24.235Z,6.20
2018-01-30T01:36:55.915Z,6.20
2018-01-30T01:37:27.524Z,6.20
2018-01-30T01:37:59.158Z,6.10
2018-01-30T01:38:30.774Z,6.10
2018-01-30T01:39:02.462Z,6.10
2018-01-30T01:39:34.096Z,6.10
2018-01-30T01:40:05.724Z,6.10
2018-01-30T01:40:37.376Z,6.00
2018-01-30T01:41:09.002Z,6.10
2018-01-30T01:41:40.622Z,6.00
2018-01-30T01:42:12.251Z,6.00
2018-01-30T01:42:43.896Z,6.00
2018-01-30T01:43:15.504Z,6.00
2018-01-30T01:43:47.120Z,6.00
2018-01-30T01:44:18.728Z,6.10
2018-01-30T01:44:50.342Z,6.00
2018-01-30T01:45:22.002Z,6.00
2018-01-30T01:45:53.636Z,6.00
2018-01-30T01:46:25.270Z,6.00
2018-01-30T01:46:56.900Z,6.00
2018-01-30T01:47:28.558Z,6.00
2018-01-30T01:48:00.194Z,5.90
2018-01-30T01:48:31.804Z,5.90
2018-01-30T01:49:03.430Z,5.90
2018-01-30T01:49:35.079Z,6.00
2018-01-30T01:50:06.746Z,6.00
2018-01-30T01:50:38.364Z,5.90
2018-01-30T01:51:09.968Z,5.90
2018-01-30T01:51:41.611Z,5.80
2018-01-30T01:52:13.209Z,5.90
2018-01-30T01:52:44.848Z,5.90
2018-01-30T01:53:16.456Z,5.90
2018-01-30T01:53:48.080Z,5.90
2018-01-30T01:54:19.682Z,5.90
2018-01-30T01:54:51.306Z,5.90
2018-01-30T01:55:22.928Z,5.90
2018-01-30T01:55:54.548Z,5.90
2018-01-30T01:56:26.176Z,5.80
2018-01-30T01:56:57.795Z,5.80
2018-01-30T01:57:29.404Z,5.80
2018-01-30T01:58:01.017Z,5.80
2018-01-30T01:58:32.632Z,5.90
2018-01-30T01:59:04.274Z,6.00
2018-01-30T01:59:35.898Z,6.00
2018-01-30T02:00:07.534Z,6.00
2018-01-30T02:00:39.186Z,5.90
2018-01-30T02:01:10.824Z,6.00
2018-01-30T02:01:42.458Z,6.00
2018-01-30T02:02:14.092Z,5.90
2018-01-30T02:02:45.725Z,6.00
2018-01-30T02:03:17.372Z,5.90
2018-01-30T02:03:49.000Z,5.90
2018-01-30T02:04:20.604Z,5.90
2018-01-30T02:04:52.228Z,5.90
2018-01-30T02:05:23.854Z,5.90
2018-01-30T02:05:55.561Z,5.90
2018-01-30T02:06:27.188Z,5.80
2018-01-30T02:06:58.862Z,5.80
2018-01-30T02:07:30.510Z,5.80
2018-01-30T02:08:02.165Z,5.90
2018-01-30T02:08:33.776Z,5.90
2018-01-30T02:09:05.394Z,5.80
2018-01-30T02:09:37.016Z,5.80
2018-01-30T02:10:08.653Z,5.80
2018-01-30T02:10:40.308Z,5.80
2018-01-30T02:11:11.942Z,5.90
2018-01-30T02:11:43.565Z,5.90
2018-01-30T02:12:15.182Z,5.80
2018-01-30T02:12:46.796Z,5.90
2018-01-30T02:13:18.421Z,5.90
2018-01-30T02:13:50.040Z,5.90
2018-01-30T02:14:21.648Z,5.90
2018-01-30T02:14:53.259Z,5.80
2018-01-30T02:15:24.881Z,5.90
2018-01-30T02:15:56.532Z,5.80
2018-01-30T02:16:28.164Z,5.70
2018-01-30T02:16:59.808Z,5.80
2018-01-30T02:17:31.436Z,5.70
2018-01-30T02:18:03.058Z,5.70
2018-01-30T02:18:34.656Z,5.70
2018-01-30T02:19:06.328Z,5.70
2018-01-30T02:19:37.992Z,5.60
2018-01-30T02:20:09.703Z,5.70
2018-01-30T02:20:41.341Z,5.70
2018-01-30T02:21:12.984Z,5.60
2018-01-30T02:21:44.668Z,5.70
2018-01-30T02:22:16.296Z,5.70
2018-01-30T02:22:47.904Z,5.70
2018-01-30T02:23:19.516Z,5.60
2018-01-30T02:23:51.132Z,5.60
2018-01-30T02:24:22.752Z,5.70
2018-01-30T02:24:54.386Z,5.60
2018-01-30T02:25:25.987Z,5.60
2018-01-30T02:25:57.592Z,5.60
2018-01-30T02:26:29.195Z,5.60
2018-01-30T02:27:00.822Z,5.60
2018-01-30T02:27:32.428Z,5.60
2018-01-30T02:28:04.058Z,5.60
2018-01-30T02:28:35.691Z,5.60
2018-01-30T02:29:07.312Z,5.60
2018-01-30T02:29:38.927Z,5.50
2018-01-30T02:30:10.572Z,5.60
2018-01-30T02:30:42.217Z,5.60
2018-01-30T02:31:13.834Z,5.50
2018-01-30T02:31:45.466Z,5.60
2018-01-30T02:32:17.090Z,5.50
2018-01-30T02:32:48.708Z,5.50
2018-01-30T02:33:20.353Z,5.50
2018-01-30T02:33:51.964Z,5.50
2018-01-30T02:34:23.572Z,5.60
2018-01-30T02:34:55.236Z,5.50
2018-01-30T02:35:26.856Z,5.50
2018-01-30T02:35:58.460Z,5.50
2018-01-30T02:36:30.064Z,5.50
2018-01-30T02:37:01.676Z,5.40
2018-01-30T02:37:33.280Z,5.50
2018-01-30T02:38:04.890Z,5.50
2018-01-30T02:38:36.514Z,5.50
2018-01-30T02:39:08.180Z,5.50
2018-01-30T02:39:39.828Z,5.50
2018-01-30T02:40:11.447Z,5.50
2018-01-30T02:40:43.088Z,5.50
2018-01-30T02:41:14.714Z,5.50
2018-01-30T02:41:46.308Z,5.50
2018-01-30T02:42:17.922Z,5.50
2018-01-30T02:42:49.534Z,5.50
2018-01-30T02:43:21.178Z,5.50
2018-01-30T02:43:52.807Z,5.50
2018-01-30T02:44:24.412Z,5.50
2018-01-30T02:44:56.037Z,5.40
2018-01-30T02:45:27.644Z,5.50
2018-01-30T02:45:59.264Z,5.50
2018-01-30T02:46:30.880Z,5.50
2018-01-30T02:47:02.494Z,5.50
2018-01-30T02:47:34.125Z,5.50
2018-01-30T02:48:05.735Z,5.50
2018-01-30T02:48:37.349Z,5.50
2018-01-30T02:49:08.972Z,5.50
2018-01-30T02:49:40.589Z,5.50
2018-01-30T02:50:12.186Z,5.60
2018-01-30T02:50:43.889Z,5.50
2018-01-30T02:51:15.522Z,5.60
2018-01-30T02:51:47.122Z,5.50
2018-01-30T02:52:18.732Z,5.60
2018-01-30T02:52:50.368Z,5.60
2018-01-30T02:53:22.008Z,5.60
2018-01-30T02:53:53.626Z,5.60
2018-01-30T02:54:25.249Z,5.60
2018-01-30T02:54:56.874Z,5.60
2018-01-30T02:55:28.522Z,5.60
2018-01-30T02:56:00.146Z,5.60
2018-01-30T02:56:31.766Z,5.70
2018-01-30T02:57:03.371Z,5.70
2018-01-30T02:57:34.980Z,5.70
2018-01-30T02:58:06.656Z,5.70
2018-01-30T02:58:38.271Z,5.70
2018-01-30T02:59:09.904Z,5.60
2018-01-30T02:59:41.520Z,5.70
2018-01-30T03:00:13.144Z,5.70
2018-01-30T03:00:44.788Z,5.70
2018-01-30T03:01:16.429Z,5.80
2018-01-30T03:01:48.040Z,5.80
2018-01-30T03:02:19.650Z,5.80
2018-01-30T03:02:51.258Z,5.80
2018-01-30T03:03:22.908Z,5.80
2018-01-30T03:03:54.524Z,5.80
2018-01-30T03:04:26.142Z,5.80
2018-01-30T03:04:57.769Z,5.90
2018-01-30T03:05:29.411Z,5.90
2018-01-30T03:06:01.040Z,5.90
2018-01-30T03:06:32.654Z,5.80
2018-01-30T03:07:04.280Z,5.90
2018-01-30T03:07:35.872Z,5.90
2018-01-30T03:08:07.487Z,6.00
2018-01-30T03:08:39.137Z,5.90
2018-01-30T03:09:10.766Z,5.90
2018-01-30T03:09:42.376Z,6.00
2018-01-30T03:10:14.016Z,6.00
2018-01-30T03:10:45.632Z,6.00
2018-01-30T03:11:17.256Z,5.90
2018-01-30T03:11:48.898Z,6.00
2018-01-30T03:12:20.508Z,6.00
2018-01-30T03:12:52.170Z,5.90
2018-01-30T03:13:23.806Z,6.10
2018-01-30T03:13:55.438Z,6.10
2018-01-30T03:14:27.080Z,6.10
2018-01-30T03:14:58.686Z,6.10
2018-01-30T03:15:30.324Z,6.10
2018-01-30T03:16:01.950Z,6.10
2018-01-30T03:16:33.568Z,6.10
2018-01-30T03:17:05.176Z,6.20
2018-01-30T03:17:36.782Z,6.10
2018-01-30T03:18:08.396Z,6.10
2018-01-30T03:18:40.056Z,6.20
2018-01-30T03:19:11.664Z,6.20
2018-01-30T03:19:43.286Z,6.20
2018-01-30T03:20:14.886Z,6.20
2018-01-30T03:20:46.503Z,6.20
2018-01-30T03:21:18.114Z,6.20
2018-01-30T03:21:49.734Z,6.20
2018-01-30T03:22:21.357Z,6.20
2018-01-30T03:22:52.968Z,6.30
2018-01-30T03:23:24.580Z,6.30
2018-01-30T03:23:56.198Z,6.30
2018-01-30T03:24:27.820Z,6.30
2018-01-30T03:24:59.458Z,6.30
2018-01-30T03:25:31.060Z,6.30
2018-01-30T03:26:02.690Z,6.30
2018-01-30T03:26:34.292Z,6.40
2018-01-30T03:27:05.914Z,6.40
2018-01-30T03:27:37.563Z,6.40
2018-01-30T03:28:09.176Z,6.40
2018-01-30T03:28:40.801Z,6.40
2018-01-30T03:29:12.413Z,6.50
2018-01-30T03:29:44.014Z,6.40
2018-01-30T03:30:15.632Z,6.40
2018-01-30T03:30:47.257Z,6.50
2018-01-30T03:31:18.895Z,6.50
2018-01-30T03:31:50.536Z,6.50
2018-01-30T03:32:22.146Z,6.50
2018-01-30T03:32:53.765Z,6.50
2018-01-30T03:33:25.380Z,6.60
2018-01-30T03:33:57.012Z,6.50
2018-01-30T03:34:28.630Z,6.50
2018-01-30T03:35:00.260Z,6.60
2018-01-30T03:35:31.864Z,6.60
2018-01-30T03:36:03.486Z,6.60
2018-01-30T03:36:35.115Z,6.60
2018-01-30T03:37:06.730Z,6.60
2018-01-30T03:37:38.521Z,6.60
2018-01-30T03:38:10.156Z,6.60
2018-01-30T03:38:41.788Z,6.60
2018-01-30T03:39:13.412Z,6.60
2018-01-30T03:39:45.016Z,6.60
2018-01-30T03:40:16.636Z,6.60
2018-01-30T03:40:48.311Z,6.70
2018-01-30T03:41:19.916Z,6.70
2018-01-30T03:41:51.547Z,6.70
2018-01-30T03:42:23.170Z,6.60
2018-01-30T03:42:54.796Z,6.70
2018-01-30T03:43:26.416Z,6.70
2018-01-30T03:43:58.028Z,6.70
2018-01-30T03:44:29.656Z,6.70
2018-01-30T03:45:01.263Z,6.70
2018-01-30T03:45:32.889Z,6.80
2018-01-30T03:46:04.520Z,6.70
2018-01-30T03:46:36.146Z,6.80
2018-01-30T03:47:07.746Z,6.80
2018-01-30T03:47:39.348Z,6.70
2018-01-30T03:48:10.981Z,6.80
2018-01-30T03:48:42.599Z,6.80
2018-01-30T03:49:14.240Z,6.90
2018-01-30T03:49:45.920Z,6.80
2018-01-30T03:50:17.553Z,6.90
2018-01-30T03:50:49.180Z,6.80
2018-01-30T03:51:20.808Z,6.80
2018-01-30T03:51:52.436Z,6.90
2018-01-30T03:52:24.052Z,6.80
2018-01-30T03:52:55.670Z,6.90
2018-01-30T03:53:27.268Z,6.80
2018-01-30T03:53:58.908Z,6.80
2018-01-30T03:54:30.520Z,6.90
2018-01-30T03:55:02.132Z,6.80
2018-01-30T03:55:33.768Z,6.90
2018-01-30T03:56:05.383Z,6.80
2018-01-30T03:56:36.991Z,6.90
2018-01-30T03:57:08.616Z,7.00
2018-01-30T03:57:40.247Z,6.90
2018-01-30T03:58:11.864Z,6.90
2018-01-30T03:58:43.483Z,6.90
2018-01-30T03:59:15.104Z,6.90
2018-01-30T03:59:46.720Z,7.00
2018-01-30T04:00:18.328Z,6.90
2018-01-30T04:00:49.943Z,6.90
2018-01-30T04:01:21.566Z,6.90
2018-01-30T04:01:53.185Z,6.90
2018-01-30T04:02:24.788Z,6.90
2018-01-30T04:02:56.409Z,6.90
2018-01-30T04:03:28.028Z,6.90
2018-01-30T04:03:59.658Z,6.90
2018-01-30T04:04:31.292Z,6.90
2018-01-30T04:05:02.920Z,7.00
2018-01-30T04:05:34.546Z,7.00
2018-01-30T04:06:06.177Z,7.00
2018-01-30T04:06:37.847Z,7.00
2018-01-30T04:07:09.440Z,7.00
2018-01-30T04:07:41.049Z,7.00
2018-01-30T04:08:12.676Z,7.00
2018-01-30T04:08:44.282Z,7.00
2018-01-30T04:09:15.899Z,6.90
2018-01-30T04:09:47.520Z,7.00
2018-01-30T04:10:19.146Z,7.00
2018-01-30T04:10:50.782Z,6.90
2018-01-30T04:11:22.383Z,6.80
2018-01-30T04:11:53.998Z,6.90
2018-01-30T04:12:25.623Z,6.90
2018-01-30T04:12:57.252Z,6.90
2018-01-30T04:13:28.896Z,6.90
2018-01-30T04:14:00.516Z,6.80
2018-01-30T04:14:32.122Z,6.80
2018-01-30T04:15:03.780Z,6.90
2018-01-30T04:15:35.406Z,6.80
2018-01-30T04:16:07.045Z,6.80
2018-01-30T04:16:38.692Z,6.80
2018-01-30T04:17:10.316Z,6.80
2018-01-30T04:17:41.920Z,6.80
2018-01-30T04:18:13.559Z,6.70
2018-01-30T04:18:45.207Z,6.70
2018-01-30T04:19:16.840Z,6.70
2018-01-30T04:19:48.450Z,6.80
2018-01-30T04:20:20.091Z,6.80
2018-01-30T04:20:51.720Z,6.70
2018-01-30T04:21:23.332Z,6.70
2018-01-30T04:21:54.944Z,6.70
2018-01-30T04:22:26.552Z,6.70
2018-01-30T04:22:58.203Z,6.70
2018-01-30T04:23:29.820Z,6.70
2018-01-30T04:24:01.427Z,6.70
2018-01-30T04:24:33.039Z,6.70
2018-01-30T04:25:04.647Z,6.70
2018-01-30T04:25:36.304Z,6.70
2018-01-30T04:26:07.912Z,6.60
2018-01-30T04:26:39.510Z,6.60
2018-01-30T04:27:11.144Z,6.70
2018-01-30T04:27:42.770Z,6.70
2018-01-30T04:28:14.392Z,6.70
2018-01-30T04:28:46.018Z,6.60
2018-01-30T04:29:17.652Z,6.70
2018-01-30T04:29:49.266Z,6.80
2018-01-30T04:30:20.890Z,6.80
2018-01-30T04:30:52.522Z,6.90
2018-01-30T04:31:24.142Z,6.90
2018-01-30T04:31:55.766Z,7.00
2018-01-30T04:32:27.410Z,7.00
2018-01-30T04:32:59.042Z,7.00
2018-01-30T04:33:30.659Z,7.00
2018-01-30T04:34:02.272Z,7.00
2018-01-30T04:34:33.914Z,7.00
2018-01-30T04:35:05.524Z,7.00
2018-01-30T04:35:37.136Z,6.90
2018-01-30T04:36:08.754Z,7.00
2018-01-30T04:36:40.368Z,6.80
2018-01-30T04:37:11.990Z,6.80
2018-01-30T04:37:43.616Z,6.90
2018-01-30T04:38:15.244Z,6.80
2018-01-30T04:38:46.897Z,6.90
2018-01-30T04:39:18.542Z,6.90
2018-01-30T04:39:50.147Z,6.80
2018-01-30T04:40:21.743Z,6.80
2018-01-30T04:40:53.384Z,6.80
2018-01-30T04:41:33.236Z,6.70
2018-01-30T04:42:04.862Z,6.70
2018-01-30T04:42:36.493Z,6.80
2018-01-30T04:43:08.096Z,6.70
2018-01-30T04:43:39.716Z,6.70
2018-01-30T04:44:11.315Z,6.70
2018-01-30T04:44:42.924Z,6.60
2018-01-30T04:45:14.552Z,6.70
2018-01-30T04:45:46.168Z,6.70
2018-01-30T04:46:17.776Z,6.70
2018-01-30T04:46:49.406Z,6.70
2018-01-30T04:47:21.034Z,6.70
2018-01-30T04:47:52.667Z,6.70
2018-01-30T04:48:24.276Z,6.70
2018-01-30T04:48:55.894Z,6.70
2018-01-30T04:49:27.512Z,6.70
2018-01-30T04:49:59.136Z,6.60
2018-01-30T04:50:30.766Z,6.70
2018-01-30T04:51:02.371Z,6.70
2018-01-30T04:51:33.995Z,6.60
2018-01-30T04:52:05.619Z,6.60
2018-01-30T04:52:37.264Z,6.60
2018-01-30T04:53:08.876Z,6.60
2018-01-30T04:53:40.489Z,6.50
2018-01-30T04:54:12.120Z,6.50
2018-01-30T04:54:43.734Z,6.50
2018-01-30T04:55:15.371Z,6.50
2018-01-30T04:55:46.984Z,6.50
2018-01-30T04:56:18.588Z,6.50
2018-01-30T04:56:50.188Z,6.50
2018-01-30T04:57:21.811Z,6.40
2018-01-30T04:57:53.432Z,6.40
2018-01-30T04:58:25.082Z,6.30
2018-01-30T04:58:56.779Z,6.40
2018-01-30T04:59:28.386Z,6.40
2018-01-30T04:59:59.994Z,6.40
2018-01-30T05:00:31.613Z,6.30
2018-01-30T05:01:03.260Z,6.40
2018-01-30T05:01:34.840Z,6.30
2018-01-30T05:02:06.455Z,6.20
2018-01-30T05:02:38.113Z,6.30
2018-01-30T05:03:09.746Z,6.30
2018-01-30T05:03:41.398Z,6.30
2018-01-30T05:04:13.008Z,6.30
2018-01-30T05:04:44.620Z,6.30
2018-01-30T05:05:16.228Z,6.30
2018-01-30T05:05:47.829Z,6.20
2018-01-30T05:06:19.455Z,6.30
2018-01-30T05:06:51.052Z,6.20
2018-01-30T05:07:22.647Z,6.30
2018-01-30T05:07:54.274Z,6.30
2018-01-30T05:08:25.881Z,6.30
2018-01-30T05:08:57.481Z,6.30
2018-01-30T05:09:29.093Z,6.30
2018-01-30T05:10:00.701Z,6.40
2018-01-30T05:10:32.328Z,6.30
2018-01-30T05:11:03.932Z,6.30
2018-01-30T05:11:35.548Z,6.30
2018-01-30T05:12:07.145Z,6.30
2018-01-30T05:12:38.757Z,6.30
2018-01-30T05:13:10.408Z,6.20
2018-01-30T05:13:42.039Z,6.30
2018-01-30T05:14:13.668Z,6.20
2018-01-30T05:14:45.278Z,6.20
2018-01-30T05:15:16.892Z,6.20
2018-01-30T05:15:48.511Z,6.20
2018-01-30T05:16:20.134Z,6.20
2018-01-30T05:16:51.758Z,6.10
2018-01-30T05:17:23.380Z,6.20
2018-01-30T05:17:54.994Z,6.10
2018-01-30T05:18:26.616Z,6.10
2018-01-30T05:18:58.275Z,6.10
2018-01-30T05:19:29.904Z,6.00
2018-01-30T05:20:01.538Z,6.10
2018-01-30T05:20:33.152Z,6.00
2018-01-30T05:21:04.815Z,6.00
2018-01-30T05:21:36.437Z,5.90
2018-01-30T05:22:08.048Z,6.10
2018-01-30T05:22:39.675Z,5.90
2018-01-30T05:23:11.299Z,6.00
2018-01-30T05:23:42.931Z,6.10
2018-01-30T05:24:14.558Z,5.90
2018-01-30T05:24:46.177Z,6.00
2018-01-30T05:25:17.778Z,6.00
2018-01-30T05:25:49.422Z,5.90
2018-01-30T05:26:21.052Z,5.90
2018-01-30T05:26:52.656Z,5.90
2018-01-30T05:27:24.252Z,5.90
2018-01-30T05:27:55.866Z,5.90
2018-01-30T05:28:27.491Z,5.90
2018-01-30T05:28:59.112Z,5.90
2018-01-30T05:29:30.725Z,6.00
2018-01-30T05:30:02.558Z,5.90
2018-01-30T05:30:34.166Z,5.90
2018-01-30T05:31:05.795Z,6.00
2018-01-30T05:31:37.419Z,5.90
2018-01-30T05:32:09.032Z,5.90
2018-01-30T05:32:40.661Z,6.00
2018-01-30T05:33:12.290Z,5.90
2018-01-30T05:33:43.949Z,5.90
2018-01-30T05:34:15.640Z,5.90
2018-01-30T05:34:47.247Z,5.80
2018-01-30T05:35:18.858Z,5.80
2018-01-30T05:35:50.469Z,5.70
2018-01-30T05:36:22.183Z,5.80
2018-01-30T05:36:53.824Z,5.80
2018-01-30T05:37:25.448Z,5.70
2018-01-30T05:37:57.999Z,5.80
2018-01-30T05:38:29.615Z,5.70
2018-01-30T05:39:01.242Z,5.80
2018-01-30T05:39:32.854Z,5.80
2018-01-30T05:40:04.462Z,5.80
2018-01-30T05:40:36.096Z,5.90
2018-01-30T05:41:07.764Z,5.90
2018-01-30T05:41:39.401Z,5.90
2018-01-30T05:42:11.014Z,5.90
2018-01-30T05:42:42.650Z,5.90
2018-01-30T05:43:14.274Z,6.00
2018-01-30T05:43:45.900Z,5.90
2018-01-30T05:44:17.555Z,5.90
2018-01-30T05:44:49.208Z,6.00
2018-01-30T05:45:20.841Z,6.00
2018-01-30T05:45:52.480Z,6.00
2018-01-30T05:46:24.090Z,6.00
2018-01-30T05:46:55.704Z,6.00
2018-01-30T05:47:27.366Z,6.00
2018-01-30T05:47:58.978Z,6.10
2018-01-30T05:48:30.592Z,6.00
2018-01-30T05:49:02.201Z,6.10
2018-01-30T05:49:33.793Z,6.10
2018-01-30T05:50:05.432Z,6.20
2018-01-30T05:50:37.034Z,6.20
2018-01-30T05:51:08.646Z,6.20
2018-01-30T05:51:40.255Z,6.20
2018-01-30T05:52:11.880Z,6.30
2018-01-30T05:52:43.522Z,6.30
2018-01-30T05:53:15.104Z,6.30
2018-01-30T05:53:46.705Z,6.40
2018-01-30T05:54:18.321Z,6.40
2018-01-30T05:54:49.948Z,6.40
2018-01-30T05:55:21.580Z,6.50
2018-01-30T05:55:53.211Z,6.50
2018-01-30T05:56:24.829Z,6.50
2018-01-30T05:56:56.455Z,6.50
2018-01-30T05:57:28.068Z,6.50
2018-01-30T05:57:59.680Z,6.50
2018-01-30T05:58:31.280Z,6.60
2018-01-30T05:59:02.955Z,6.60
2018-01-30T05:59:34.593Z,6.60
2018-01-30T06:00:06.216Z,6.50
2018-01-30T06:00:37.860Z,6.50
2018-01-30T06:01:09.472Z,6.60
2018-01-30T06:01:41.094Z,6.60
2018-01-30T06:02:12.695Z,6.60
2018-01-30T06:02:44.291Z,6.60
2018-01-30T06:03:15.908Z,6.70
2018-01-30T06:03:47.529Z,6.80
2018-01-30T06:04:19.127Z,6.70
2018-01-30T06:04:50.750Z,6.70
2018-01-30T06:05:22.363Z,6.70
2018-01-30T06:05:54.000Z,6.80
2018-01-30T06:06:25.648Z,6.70
2018-01-30T06:06:57.276Z,6.70
2018-01-30T06:07:28.904Z,6.70
2018-01-30T06:08:00.534Z,6.70
2018-01-30T06:08:32.155Z,6.80
2018-01-30T06:09:03.820Z,6.70
2018-01-30T06:09:35.470Z,6.70
2018-01-30T06:10:07.101Z,6.80
2018-01-30T06:10:38.783Z,6.70
2018-01-30T06:11:10.397Z,6.70
2018-01-30T06:11:42.028Z,6.70
2018-01-30T06:12:13.632Z,6.70
2018-01-30T06:12:45.229Z,6.80
2018-01-30T06:13:16.842Z,6.80
2018-01-30T06:13:48.467Z,6.80
2018-01-30T06:14:20.071Z,6.90
2018-01-30T06:14:51.683Z,6.80
2018-01-30T06:15:23.306Z,6.70
2018-01-30T06:15:54.937Z,6.90
2018-01-30T06:16:26.606Z,6.90
2018-01-30T06:16:58.223Z,6.90
2018-01-30T06:17:29.855Z,6.80
2018-01-30T06:18:01.465Z,6.70
2018-01-30T06:18:33.077Z,6.80
2018-01-30T06:19:04.679Z,6.70
2018-01-30T06:19:36.289Z,6.80
2018-01-30T06:20:07.887Z,6.80
2018-01-30T06:20:39.497Z,6.70
2018-01-30T06:21:11.095Z,6.70
2018-01-30T06:21:42.728Z,6.70
2018-01-30T06:22:14.345Z,6.80
2018-01-30T06:22:45.949Z,6.70
2018-01-30T06:23:17.575Z,6.70
2018-01-30T06:23:49.191Z,6.70
2018-01-30T06:24:20.790Z,6.70
2018-01-30T06:24:52.443Z,6.70
2018-01-30T06:25:24.062Z,6.70
2018-01-30T06:25:55.686Z,6.70
2018-01-30T06:26:27.287Z,6.70
2018-01-30T06:26:58.913Z,6.80
2018-01-30T06:27:30.538Z,6.80
2018-01-30T06:28:02.168Z,6.80
2018-01-30T06:28:33.784Z,6.80
2018-01-30T06:29:05.401Z,6.80
2018-01-30T06:29:37.015Z,6.80
2018-01-30T06:30:08.629Z,6.80
2018-01-30T06:30:40.238Z,6.80
2018-01-30T06:31:11.841Z,6.90
2018-01-30T06:31:43.463Z,6.80
2018-01-30T06:32:15.094Z,6.80
2018-01-30T06:32:46.706Z,6.80
2018-01-30T06:33:18.322Z,6.80
2018-01-30T06:33:49.945Z,6.80
2018-01-30T06:34:21.559Z,6.80
2018-01-30T06:34:53.165Z,6.70
2018-01-30T06:35:24.780Z,6.70
2018-01-30T06:35:56.410Z,6.70
2018-01-30T06:36:28.008Z,6.60
2018-01-30T06:36:59.646Z,6.70
2018-01-30T06:37:31.254Z,6.60
2018-01-30T06:38:02.897Z,6.60
2018-01-30T06:38:34.548Z,6.70
2018-01-30T06:39:06.174Z,6.60
2018-01-30T06:39:37.818Z,6.60
2018-01-30T06:40:09.444Z,6.60
2018-01-30T06:40:41.043Z,6.50
2018-01-30T06:41:12.664Z,6.50
2018-01-30T06:41:44.302Z,6.50
2018-01-30T06:42:15.935Z,6.50
2018-01-30T06:42:47.597Z,6.50
2018-01-30T06:43:19.195Z,6.40
2018-01-30T06:43:50.807Z,6.40
2018-01-30T06:44:22.464Z,6.50
2018-01-30T06:44:54.081Z,6.50
2018-01-30T06:45:25.696Z,6.40
2018-01-30T06:45:57.328Z,6.40
2018-01-30T06:46:28.952Z,6.30
2018-01-30T06:47:00.564Z,6.30
2018-01-30T06:47:32.172Z,6.40
2018-01-30T06:48:03.794Z,6.30
2018-01-30T06:48:35.436Z,6.30
2018-01-30T06:49:07.051Z,6.20
2018-01-30T06:49:38.661Z,6.20
2018-01-30T06:50:10.275Z,6.20
2018-01-30T06:50:41.899Z,6.20
2018-01-30T06:51:13.520Z,6.20
2018-01-30T06:51:45.159Z,6.10
2018-01-30T06:52:16.763Z,6.20
2018-01-30T06:52:48.375Z,6.10
2018-01-30T06:53:20.008Z,6.10
2018-01-30T06:53:51.610Z,6.00
2018-01-30T06:54:23.212Z,6.10
2018-01-30T06:54:54.862Z,6.00
2018-01-30T06:55:26.471Z,6.10
2018-01-30T06:55:58.079Z,6.10
2018-01-30T06:56:29.691Z,6.00
2018-01-30T06:57:01.287Z,6.00
2018-01-30T06:57:32.912Z,6.00
2018-01-30T06:58:04.522Z,6.00
2018-01-30T06:58:36.358Z,6.10
2018-01-30T06:59:08.043Z,6.00
2018-01-30T06:59:39.646Z,6.10
2018-01-30T07:00:12.194Z,6.10
2018-01-30T07:00:43.803Z,6.20
2018-01-30T07:01:15.419Z,6.10